Time;durP1;ratioP1;P1;durP2;ratioP2;P2;SDS_P1;SDS_P2;PMS_P1;PMS_P2;Temp;Humidity;BMP_temperature;BMP_pressure;BME280_temperature;BME280_humidity;BME280_pressure;Samples;Min_cycle;Max_cycle;Signal;HPM_P1;HPM_P2
2023/05/01 00:00:57;;;;;;;;;;;15.60;53.20;;;11.23;81.48;95363.25;5019121;28;19913;-47
2023/05/01 00:03:22;;;;;;;;;;;15.60;53.20;;;11.20;82.06;95351.25;5024409;28;19908;-48
2023/05/01 00:05:48;;;;;;;;;;;15.60;53.20;;;11.19;82.14;95362.19;5032093;28;20350;-47
2023/05/01 00:08:14;;;;;;;;;;;15.60;53.20;;;11.18;82.34;95352.59;5027317;28;19924;-47
2023/05/01 00:10:46;;;;;;;;;;;15.60;53.80;;;11.17;82.40;95348.34;5028603;28;19932;-48
2023/05/01 00:13:11;;;;;;;;;;;15.60;53.20;;;11.16;82.59;95357.44;5034689;28;19974;-47
2023/05/01 00:15:41;;;;;;;;;;;15.60;53.20;;;11.16;82.99;95347.56;5031199;28;20407;-48
2023/05/01 00:18:06;;;;;;;;;;;15.60;53.20;;;11.16;83.18;95349.44;5034668;28;20378;-47
2023/05/01 00:20:32;;;;;;;;;;;15.60;53.30;;;11.14;83.57;95348.88;5026382;28;19960;-47
2023/05/01 00:22:58;;;;;;;;;;;15.60;53.30;;;11.13;83.88;95345.44;5034538;28;19916;-48
2023/05/01 00:25:23;;;;;;;;;;;15.60;53.40;;;11.10;84.38;95345.97;5034095;28;19954;-47
2023/05/01 00:27:49;;;;;;;;;;;15.60;53.40;;;11.04;86.20;95347.88;5022906;28;19963;-47
2023/05/01 00:30:15;;;;;;;;;;;15.60;53.50;;;11.03;87.37;95345.44;5034283;28;19916;-47
2023/05/01 00:32:41;;;;;;;;;;;15.50;53.50;;;11.06;87.00;95347.56;5031612;28;20390;-48
2023/05/01 00:35:07;;;;;;;;;;;15.50;54.20;;;11.04;87.05;95342.53;5033820;28;19977;-49
2023/05/01 00:37:33;;;;;;;;;;;15.50;53.80;;;11.01;88.05;95344.94;5033386;28;20368;-48
2023/05/01 00:39:59;;;;;;;;;;;15.40;53.80;;;10.97;88.71;95349.22;5027648;28;19963;-49
2023/05/01 00:42:25;;;;;;;;;;;15.40;53.90;;;10.93;88.08;95345.50;5033944;28;19913;-48
2023/05/01 00:44:50;;;;;;;;;;;15.40;54.00;;;10.91;88.96;95345.00;5023878;28;19909;-48
2023/05/01 00:47:17;;;;;;;;;;;15.40;54.10;;;10.86;89.23;95345.78;5033854;28;19920;-47
2023/05/01 00:49:45;;;;;;;;;;;15.30;54.10;;;10.81;90.03;95343.13;5032321;28;20279;-48
2023/05/01 00:52:10;;;;;;;;;;;15.30;54.20;;;10.79;90.73;95343.41;5004061;28;19912;-48
2023/05/01 00:54:37;;;;;;;;;;;15.20;54.30;;;10.72;91.03;95342.91;5033399;28;19909;-49
2023/05/01 00:57:04;;;;;;;;;;;15.20;54.40;;;10.68;91.34;95336.50;5002383;28;19917;-48
2023/05/01 00:59:30;;;;;;;;;;;15.20;54.50;;;10.63;92.30;95339.22;5009123;28;20368;-48
2023/05/01 01:01:56;;;;;;;;;;;15.10;54.60;;;10.58;92.91;95341.88;5012237;28;19916;-48
2023/05/01 01:04:22;;;;;;;;;;;15.00;54.60;;;10.55;93.01;95337.09;5007912;28;19909;-48
2023/05/01 01:07:20;;;;;;;;;;;15.00;54.80;;;10.50;94.17;95343.22;5020387;28;19955;-48
2023/05/01 01:09:58;;;;;;;;;;;15.00;54.90;;;10.47;95.41;95335.78;5018130;28;19995;-51
2023/05/01 01:12:50;;;;;;;;;;;14.90;55.10;;;10.42;95.89;95333.91;5019891;28;20317;-48
2023/05/01 01:15:29;;;;;;;;;;;14.80;55.20;;;10.35;97.71;95335.28;5005854;28;19909;-48
2023/05/01 01:18:08;;;;;;;;;;;14.80;55.30;;;10.32;97.27;95328.59;5021210;28;19912;-48
2023/05/01 01:21:05;;;;;;;;;;;14.70;55.50;;;10.29;97.91;95325.69;5011733;28;19913;-48
2023/05/01 01:24:07;;;;;;;;;;;14.70;55.60;;;10.23;98.63;95330.19;4997466;28;20258;-48
2023/05/01 01:26:57;;;;;;;;;;;14.70;55.80;;;10.19;98.62;95331.78;5006401;28;19917;-47
2023/05/01 01:30:14;;;;;;;;;;;14.60;56.40;;;10.15;100.00;95328.06;4993959;28;19945;-48
2023/05/01 01:33:44;;;;;;;;;;;14.60;56.00;;;10.13;100.00;95325.69;5020768;28;20016;-48
2023/05/01 01:36:26;;;;;;;;;;;14.50;56.20;;;10.10;100.00;95322.75;5004389;28;19913;-48
2023/05/01 01:40:05;;;;;;;;;;;14.50;56.20;;;10.04;100.00;95324.63;4992799;28;20340;-48
2023/05/01 01:42:41;;;;;;;;;;;14.50;56.40;;;10.03;100.00;95327.53;4943447;28;19933;-47
2023/05/01 01:45:32;;;;;;;;;;;14.40;56.60;;;9.98;100.00;95335.53;4931984;29;19910;-50
2023/05/01 01:48:01;;;;;;;;;;;14.40;56.70;;;9.98;100.00;95335.53;4999792;28;20394;-48
2023/05/01 01:50:30;;;;;;;;;;;14.30;56.80;;;9.95;100.00;95329.66;5020196;28;19912;-48
2023/05/01 01:53:01;;;;;;;;;;;14.30;56.90;;;9.90;100.00;95337.66;5005977;28;19985;-48
2023/05/01 01:55:31;;;;;;;;;;;14.30;57.00;;;9.88;100.00;95333.66;5010463;28;20257;-49
2023/05/01 01:57:59;;;;;;;;;;;14.20;57.10;;;9.86;100.00;95339.25;5004928;28;19953;-49
2023/05/01 02:00:28;;;;;;;;;;;14.20;57.20;;;9.85;100.00;95334.19;5007825;28;19937;-49
2023/05/01 02:02:57;;;;;;;;;;;14.20;57.30;;;9.84;100.00;95335.25;4993403;28;19959;-47
2023/05/01 02:05:26;;;;;;;;;;;14.10;57.30;;;9.80;100.00;95339.50;5012345;28;19909;-48
2023/05/01 02:07:53;;;;;;;;;;;14.10;57.40;;;9.80;100.00;95336.84;4991658;28;19965;-48
2023/05/01 02:10:21;;;;;;;;;;;14.10;57.50;;;9.78;100.00;95337.13;5017873;28;20011;-47
2023/05/01 02:12:51;;;;;;;;;;;14.10;57.60;;;9.78;100.00;95331.81;5001881;28;19964;-48
2023/05/01 02:15:19;;;;;;;;;;;14.00;58.40;;;9.76;100.00;95333.91;4998383;28;19909;-46
2023/05/01 02:17:46;;;;;;;;;;;14.00;57.80;;;9.75;100.00;95331.53;5003348;28;20368;-46
2023/05/01 02:20:14;;;;;;;;;;;14.00;57.90;;;9.71;100.00;95331.25;4994801;28;19909;-47
2023/05/01 02:22:42;;;;;;;;;;;14.00;58.00;;;9.67;100.00;95335.50;5012794;28;20067;-48
2023/05/01 02:25:11;;;;;;;;;;;14.00;58.10;;;9.67;100.00;95325.66;5016662;28;20283;-48
2023/05/01 02:27:54;;;;;;;;;;;13.90;58.10;;;9.65;100.00;95325.16;4994046;28;20398;-49
2023/05/01 02:30:20;;;;;;;;;;;13.90;58.10;;;9.65;100.00;95329.63;5002125;28;19936;-47
2023/05/01 02:32:46;;;;;;;;;;;13.90;58.20;;;9.62;100.00;95331.00;5009879;28;19951;-48
2023/05/01 02:35:12;;;;;;;;;;;13.90;58.30;;;9.62;100.00;95316.88;5003794;28;19909;-49
2023/05/01 02:37:39;;;;;;;;;;;13.90;58.40;;;9.61;100.00;95316.06;5012475;28;20371;-51
2023/05/01 02:40:06;;;;;;;;;;;13.90;58.50;;;9.62;100.00;95316.88;5011766;28;19913;-47
2023/05/01 02:42:36;;;;;;;;;;;13.90;58.50;;;9.60;100.00;95317.16;5023382;28;20298;-47
2023/05/01 02:45:10;;;;;;;;;;;13.90;58.60;;;9.58;100.00;95310.50;5011068;28;20291;-48
2023/05/01 02:47:43;;;;;;;;;;;13.90;58.70;;;9.55;100.00;95305.69;5012070;28;20264;-47
2023/05/01 02:50:09;;;;;;;;;;;13.90;59.30;;;9.55;100.00;95314.47;5009778;28;19917;-51
2023/05/01 02:52:37;;;;;;;;;;;13.90;59.40;;;9.54;100.00;95312.09;5012118;28;20358;-51
2023/05/01 02:55:04;;;;;;;;;;;13.80;58.80;;;9.55;100.00;95305.69;5017332;28;19909;-47
2023/05/01 02:57:32;;;;;;;;;;;13.80;58.90;;;9.56;100.00;95301.97;5006466;28;19921;-50
2023/05/01 02:59:58;;;;;;;;;;;13.80;59.00;;;9.55;100.00;95305.69;5012146;28;19917;-47
2023/05/01 03:02:24;;;;;;;;;;;13.80;59.10;;;9.55;100.00;95297.72;5004807;28;20149;-47
2023/05/01 03:04:50;;;;;;;;;;;13.80;59.10;;;9.53;100.00;95303.31;4996678;28;20042;-47
2023/05/01 03:07:16;;;;;;;;;;;13.80;59.10;;;9.50;100.00;95303.84;5015766;28;19920;-47
2023/05/01 03:09:42;;;;;;;;;;;13.80;59.20;;;9.48;100.00;95301.44;5015040;28;20308;-46
2023/05/01 03:12:08;;;;;;;;;;;13.80;59.30;;;9.48;100.00;95298.00;5027772;28;19960;-47
2023/05/01 03:14:33;;;;;;;;;;;13.70;59.20;;;9.47;100.00;95297.19;5014307;28;20390;-47
2023/05/01 03:17:00;;;;;;;;;;;13.70;59.30;;;9.47;100.00;95301.72;5018398;28;19980;-47
2023/05/01 03:19:26;;;;;;;;;;;13.70;59.40;;;9.46;100.00;95294.78;5020796;28;19912;-47
2023/05/01 03:21:51;;;;;;;;;;;13.70;59.50;;;9.44;100.00;95300.38;5014212;28;19909;-47
2023/05/01 03:24:17;;;;;;;;;;;13.70;59.50;;;9.43;100.00;95298.78;5027525;28;19908;-50
2023/05/01 03:26:43;;;;;;;;;;;13.70;60.30;;;9.38;100.00;95300.63;5014440;28;19908;-48
2023/05/01 03:29:09;;;;;;;;;;;13.70;59.60;;;9.38;100.00;95298.78;5011527;28;19908;-49
2023/05/01 03:31:34;;;;;;;;;;;13.70;59.70;;;9.39;100.00;95299.56;5023333;28;19913;-51
2023/05/01 03:34:00;;;;;;;;;;;13.60;59.70;;;9.34;100.00;95297.72;5014136;28;20379;-50
2023/05/01 03:36:27;;;;;;;;;;;13.60;59.80;;;9.32;100.00;95302.47;5021795;28;19909;-51
2023/05/01 03:38:52;;;;;;;;;;;13.60;59.80;;;9.34;100.00;95300.38;4996611;28;20364;-48
2023/05/01 03:41:18;;;;;;;;;;;13.60;59.90;;;9.30;100.00;95299.28;5020654;28;19928;-50
2023/05/01 03:43:44;;;;;;;;;;;13.60;59.90;;;9.28;100.00;95301.41;5018946;28;20406;-52
2023/05/01 03:46:10;;;;;;;;;;;13.60;60.00;;;9.29;100.00;95299.56;5003726;28;19909;-49
2023/05/01 03:48:35;;;;;;;;;;;13.50;60.00;;;9.27;100.00;95294.50;5021526;28;19999;-49
2023/05/01 03:51:01;;;;;;;;;;;13.50;60.10;;;9.27;100.00;95297.97;5014032;28;20386;-50
2023/05/01 03:53:27;;;;;;;;;;;13.50;60.10;;;9.25;100.00;95300.09;5020294;28;19912;-48
2023/05/01 03:55:53;;;;;;;;;;;13.50;60.10;;;9.23;100.00;95296.09;5013289;28;19924;-48
2023/05/01 03:58:20;;;;;;;;;;;13.50;60.20;;;9.20;100.00;95291.28;5021960;23;19921;-50
2023/05/01 04:00:46;;;;;;;;;;;13.50;60.30;;;9.22;100.00;95291.84;5025309;28;19919;-50
2023/05/01 04:03:12;;;;;;;;;;;13.50;60.30;;;9.20;100.00;95293.94;5015659;28;19912;-50
2023/05/01 04:05:38;;;;;;;;;;;13.40;60.30;;;9.21;100.00;95296.34;5017487;28;20329;-50
2023/05/01 04:08:04;;;;;;;;;;;13.50;60.50;;;9.17;100.00;95299.78;5032711;28;19959;-49
2023/05/01 04:10:30;;;;;;;;;;;13.40;60.50;;;9.17;100.00;95300.59;5033170;28;19908;-49
2023/05/01 04:12:56;;;;;;;;;;;13.40;60.60;;;9.16;100.00;95299.00;5040226;28;19916;-49
2023/05/01 04:15:21;;;;;;;;;;;13.40;60.70;;;9.16;100.00;95300.84;5026981;28;19916;-51
2023/05/01 04:17:47;;;;;;;;;;;13.40;60.70;;;9.11;100.00;95300.84;5039955;28;19908;-54
2023/05/01 04:20:15;;;;;;;;;;;13.40;60.70;;;9.11;100.00;95308.81;5042818;28;20311;-50
2023/05/01 04:22:41;;;;;;;;;;;13.40;60.80;;;9.10;100.00;95299.25;5035815;28;19919;-51
2023/05/01 04:25:07;;;;;;;;;;;13.40;60.90;;;9.07;100.00;95303.22;5033981;28;19913;-49
2023/05/01 04:27:33;;;;;;;;;;;13.40;61.00;;;9.07;100.00;95305.09;5030597;28;20024;-50
2023/05/01 04:29:59;;;;;;;;;;;13.40;61.00;;;9.05;100.00;95300.00;5034093;28;20013;-49
2023/05/01 04:32:24;;;;;;;;;;;13.30;61.80;;;9.05;100.00;95302.66;5042815;28;19952;-50
2023/05/01 04:34:50;;;;;;;;;;;13.40;61.00;;;9.05;100.00;95313.28;5027473;28;19932;-50
2023/05/01 04:37:17;;;;;;;;;;;13.30;61.10;;;9.02;100.00;95311.97;5040312;28;19962;-50
2023/05/01 04:39:43;;;;;;;;;;;13.30;61.10;;;9.01;100.00;95312.22;5035225;28;19908;-52
2023/05/01 04:42:09;;;;;;;;;;;13.30;61.20;;;9.04;100.00;95317.81;5040180;28;19908;-49
2023/05/01 04:44:36;;;;;;;;;;;13.30;61.20;;;9.08;100.00;95314.63;5040034;28;20387;-49
2023/05/01 04:47:02;;;;;;;;;;;13.30;61.30;;;9.10;100.00;95323.16;5039960;28;19912;-52
2023/05/01 04:49:28;;;;;;;;;;;13.40;61.40;;;9.11;100.00;95322.09;5040341;28;20297;-50
2023/05/01 04:51:54;;;;;;;;;;;13.40;61.40;;;9.13;100.00;95322.63;5033016;28;19995;-49
2023/05/01 04:54:20;;;;;;;;;;;13.40;61.50;;;9.16;100.00;95322.13;5029183;28;19909;-49
2023/05/01 04:56:45;;;;;;;;;;;13.40;62.30;;;9.17;100.00;95321.84;4976759;28;23024;-51
2023/05/01 04:59:11;;;;;;;;;;;13.50;61.60;;;9.18;100.00;95323.47;5031049;28;19962;-49
2023/05/01 05:01:37;;;;;;;;;;;13.50;61.60;;;9.17;100.00;95326.38;5040718;28;19912;-50
2023/05/01 05:04:03;;;;;;;;;;;13.50;61.60;;;9.19;100.00;95325.03;5032833;28;19915;-51
2023/05/01 05:06:28;;;;;;;;;;;13.50;61.60;;;9.21;100.00;95332.75;5036361;28;19908;-51
2023/05/01 05:08:56;;;;;;;;;;;13.50;61.60;;;9.20;100.00;95328.50;5051291;28;19919;-49
2023/05/01 05:11:22;;;;;;;;;;;13.50;61.60;;;9.18;100.00;95334.09;5027218;28;20030;-54
2023/05/01 05:13:47;;;;;;;;;;;13.60;61.70;;;9.19;100.00;95340.19;5030507;28;20317;-49
2023/05/01 05:16:14;;;;;;;;;;;13.60;61.60;;;9.22;100.00;95347.66;5036574;28;19909;-49
2023/05/01 05:18:39;;;;;;;;;;;13.60;61.70;;;9.23;100.00;95342.06;5030519;28;19916;-51
2023/05/01 05:21:07;;;;;;;;;;;13.60;61.70;;;9.24;100.00;95341.03;5039952;28;19916;-51
2023/05/01 05:23:33;;;;;;;;;;;13.60;61.70;;;9.24;100.00;95341.03;5032587;28;19934;-53
2023/05/01 05:26:03;;;;;;;;;;;13.60;61.70;;;9.27;100.00;95343.16;5046458;28;19955;-49
2023/05/01 05:28:29;;;;;;;;;;;13.70;61.80;;;9.32;100.00;95338.91;5015960;28;20066;-49
2023/05/01 05:30:56;;;;;;;;;;;13.70;61.80;;;9.31;100.00;95343.44;5046810;28;19916;-54
2023/05/01 05:33:23;;;;;;;;;;;13.70;61.70;;;9.31;100.00;95343.44;5032002;28;19966;-56
2023/05/01 05:35:51;;;;;;;;;;;13.80;61.80;;;9.30;100.00;95336.50;5036234;28;19915;-52
2023/05/01 05:38:17;;;;;;;;;;;13.80;61.80;;;9.36;100.00;95345.28;5045430;28;20004;-52
2023/05/01 05:40:42;;;;;;;;;;;13.80;62.50;;;9.40;100.00;95346.34;5038790;28;20375;-52
2023/05/01 05:43:09;;;;;;;;;;;13.90;61.80;;;9.44;100.00;95350.09;5031705;28;20402;-49
2023/05/01 05:45:36;;;;;;;;;;;13.90;61.80;;;9.50;100.00;95349.84;5042250;28;20291;-50
2023/05/01 05:48:02;;;;;;;;;;;14.00;61.90;;;9.55;100.00;95349.03;5008465;28;19917;-49
2023/05/01 05:50:28;;;;;;;;;;;14.00;61.90;;;9.60;100.00;95350.94;5039767;28;19908;-50
2023/05/01 05:52:55;;;;;;;;;;;14.10;61.90;;;9.60;100.00;95346.41;5042091;28;19915;-50
2023/05/01 05:55:21;;;;;;;;;;;14.10;61.80;;;9.66;100.00;95345.34;5045766;28;19909;-49
2023/05/01 05:57:47;;;;;;;;;;;14.10;61.80;;;9.70;100.00;95350.94;5030807;28;20378;-50
2023/05/01 06:00:14;;;;;;;;;;;14.10;61.80;;;9.72;100.00;95346.16;5033791;28;19916;-51
2023/05/01 06:02:39;;;;;;;;;;;14.20;61.80;;;9.73;100.00;95348.53;5039735;28;19913;-53
2023/05/01 06:05:06;;;;;;;;;;;14.20;61.80;;;9.76;100.00;95349.88;5015498;28;19908;-55
2023/05/01 06:07:32;;;;;;;;;;;14.20;61.80;;;9.81;100.00;95351.72;5048358;28;20286;-51
2023/05/01 06:10:03;;;;;;;;;;;14.30;61.80;;;9.81;100.00;95349.06;5039908;28;20006;-55
2023/05/01 06:12:29;;;;;;;;;;;14.30;61.90;;;9.86;100.00;95349.09;5036536;28;19908;-54
2023/05/01 06:14:55;;;;;;;;;;;14.40;61.90;;;9.91;100.00;95352.56;5040018;28;19954;-52
2023/05/01 06:17:21;;;;;;;;;;;14.50;61.80;;;9.91;100.00;95349.88;5018568;28;20259;-54
2023/05/01 06:19:47;;;;;;;;;;;14.50;61.80;;;9.92;100.00;95345.38;5040684;28;20582;-55
2023/05/01 06:22:12;;;;;;;;;;;14.60;61.70;;;9.87;100.00;95348.00;5044450;28;19931;-50
2023/05/01 06:24:38;;;;;;;;;;;14.60;61.60;;;9.88;100.00;95347.75;5041618;28;20366;-52
2023/05/01 06:27:05;;;;;;;;;;;14.60;61.50;;;9.93;100.00;95346.94;5036898;28;19919;-52
2023/05/01 06:29:31;;;;;;;;;;;14.70;62.30;;;10.01;100.00;95345.63;5039540;28;19909;-53
2023/05/01 06:31:56;;;;;;;;;;;14.70;61.60;;;10.07;100.00;95342.72;5034385;28;20373;-50
2023/05/01 06:34:22;;;;;;;;;;;14.80;61.60;;;10.12;100.00;95344.56;5031156;28;20004;-50
2023/05/01 06:36:48;;;;;;;;;;;14.80;61.60;;;10.15;100.00;95344.84;5041832;28;19909;-50
2023/05/01 06:39:13;;;;;;;;;;;14.90;61.70;;;10.08;100.00;95344.28;5028587;28;20306;-53
2023/05/01 06:41:39;;;;;;;;;;;14.90;62.40;;;10.10;100.00;95346.72;5039196;28;19915;-50
2023/05/01 06:44:05;;;;;;;;;;;14.90;61.50;;;10.11;100.00;95345.63;5031871;28;19917;-53
2023/05/01 06:46:31;;;;;;;;;;;14.90;61.40;;;10.15;100.00;95352.00;5044491;28;19978;-50
2023/05/01 06:48:56;;;;;;;;;;;14.90;61.40;;;10.17;100.00;95352.56;5030096;28;19916;-53
2023/05/01 06:51:22;;;;;;;;;;;15.00;61.50;;;10.21;100.00;95353.59;5029875;28;19935;-54
2023/05/01 06:53:48;;;;;;;;;;;15.00;61.40;;;10.29;100.00;95347.00;5029721;28;19948;-54
2023/05/01 06:56:13;;;;;;;;;;;15.10;61.50;;;10.30;100.00;95354.69;5030900;28;19908;-51
2023/05/01 06:58:39;;;;;;;;;;;15.10;61.50;;;10.28;100.00;95354.19;5031026;28;19956;-51
2023/05/01 07:01:06;;;;;;;;;;;15.10;61.50;;;10.31;100.00;95361.63;5034949;28;19958;-54
2023/05/01 07:03:31;;;;;;;;;;;15.20;61.50;;;10.39;100.00;95357.63;5038452;28;19909;-55
2023/05/01 07:05:57;;;;;;;;;;;15.20;61.40;;;10.47;100.00;95358.97;5030451;28;19909;-52
2023/05/01 07:08:23;;;;;;;;;;;15.30;61.40;;;10.56;100.00;95359.97;5029431;28;19920;-51
2023/05/01 07:10:49;;;;;;;;;;;15.40;61.40;;;10.64;100.00;95368.22;5030431;28;19909;-51
2023/05/01 07:13:16;;;;;;;;;;;15.50;61.30;;;10.76;100.00;95369.81;5030593;28;19908;-52
2023/05/01 07:15:41;;;;;;;;;;;15.60;61.30;;;10.78;100.00;95368.47;5022532;28;19909;-54
2023/05/01 07:18:08;;;;;;;;;;;15.80;61.30;;;10.87;100.00;95371.34;5030766;28;19909;-50
2023/05/01 07:20:34;;;;;;;;;;;15.80;61.10;;;10.90;100.00;95370.81;5045853;28;19912;-51
2023/05/01 07:22:59;;;;;;;;;;;15.90;61.00;;;10.84;100.00;95359.41;5039275;28;19920;-50
2023/05/01 07:25:25;;;;;;;;;;;16.00;60.90;;;10.96;100.00;95364.41;5042432;28;19975;-50
2023/05/01 07:27:51;;;;;;;;;;;16.00;60.80;;;11.05;100.00;95360.09;5029458;28;19951;-51
2023/05/01 07:30:17;;;;;;;;;;;16.10;60.80;;;11.11;100.00;95366.22;5043444;28;19913;-52
2023/05/01 07:32:43;;;;;;;;;;;16.20;60.80;;;11.09;100.00;95360.34;5033800;28;19948;-53
2023/05/01 07:35:08;;;;;;;;;;;16.20;60.70;;;11.13;100.00;95365.97;5030242;28;19908;-53
2023/05/01 07:37:34;;;;;;;;;;;16.20;60.70;;;11.11;100.00;95358.22;5029337;28;19932;-55
2023/05/01 07:40:00;;;;;;;;;;;16.20;60.70;;;11.16;100.00;95363.56;5027482;28;20359;-53
2023/05/01 07:42:28;;;;;;;;;;;16.20;60.70;;;11.16;100.00;95366.22;5040267;28;19913;-51
2023/05/01 07:44:55;;;;;;;;;;;16.20;60.70;;;11.22;100.00;95361.63;5040139;28;20001;-54
2023/05/01 07:47:20;;;;;;;;;;;16.20;60.80;;;11.16;100.00;95358.22;5052462;28;19956;-56
2023/05/01 07:49:46;;;;;;;;;;;16.20;61.00;;;11.18;100.00;95368.59;5050194;28;19912;-54
2023/05/01 07:52:12;;;;;;;;;;;16.10;60.90;;;11.14;100.00;95365.69;5026622;28;19915;-50
2023/05/01 07:54:38;;;;;;;;;;;16.10;61.00;;;11.04;100.00;95369.19;5053955;28;19931;-52
2023/05/01 07:57:05;;;;;;;;;;;16.10;61.00;;;11.12;100.00;95370.47;5024653;28;20079;-55
2023/05/01 07:59:31;;;;;;;;;;;16.00;61.00;;;11.05;100.00;95375.31;5050221;28;19912;-54
2023/05/01 08:01:57;;;;;;;;;;;16.00;61.10;;;11.04;100.00;95376.38;5051649;28;19973;-54
2023/05/01 08:04:23;;;;;;;;;;;15.90;61.10;;;11.07;100.00;95376.63;5050615;28;19974;-51
2023/05/01 08:06:51;;;;;;;;;;;16.00;61.30;;;11.15;100.00;95374.47;5053476;28;19915;-55
2023/05/01 08:09:17;;;;;;;;;;;16.00;61.30;;;11.13;100.00;95390.75;5042338;28;20290;-53
2023/05/01 08:11:43;;;;;;;;;;;16.00;61.40;;;11.20;100.00;95377.13;5044070;28;19909;-53
2023/05/01 08:14:09;;;;;;;;;;;16.00;61.30;;;11.23;100.00;95381.91;5047179;28;19962;-53
2023/05/01 08:16:35;;;;;;;;;;;16.00;61.30;;;11.27;100.00;95378.41;5034773;28;19913;-55
2023/05/01 08:19:01;;;;;;;;;;;16.00;61.40;;;11.24;100.00;95383.50;5052892;28;19908;-54
2023/05/01 08:21:26;;;;;;;;;;;16.10;61.50;;;11.27;100.00;95390.97;5049562;28;20436;-54
2023/05/01 08:23:55;;;;;;;;;;;16.20;61.40;;;11.29;100.00;95388.81;5053179;28;19908;-54
2023/05/01 08:26:21;;;;;;;;;;;16.20;61.30;;;11.37;100.00;95390.09;5031173;28;19913;-55
2023/05/01 08:28:47;;;;;;;;;;;16.30;61.40;;;11.42;100.00;95387.44;5050238;28;20293;-54
2023/05/01 08:31:13;;;;;;;;;;;16.40;61.40;;;11.54;100.00;95390.56;5029899;28;19912;-56
2023/05/01 08:33:43;;;;;;;;;;;16.50;61.20;;;11.66;100.00;95390.22;5038326;28;19940;-54
2023/05/01 08:36:09;;;;;;;;;;;16.60;61.20;;;11.82;100.00;95391.75;5053046;28;19909;-51
2023/05/01 08:38:38;;;;;;;;;;;16.80;61.00;;;11.85;100.00;95396.56;5049853;28;19908;-50
2023/05/01 08:41:04;;;;;;;;;;;17.00;60.80;;;11.78;100.00;95388.84;5039432;28;20031;-51
2023/05/01 08:43:31;;;;;;;;;;;17.20;60.60;;;11.86;100.00;95395.47;5048304;28;19912;-53
2023/05/01 08:46:03;;;;;;;;;;;17.40;60.30;;;12.01;100.00;95398.06;5042605;28;19987;-51
2023/05/01 08:48:34;;;;;;;;;;;17.60;60.00;;;12.18;100.00;95386.97;5044695;28;19961;-50
2023/05/01 08:51:03;;;;;;;;;;;17.80;60.00;;;12.35;100.00;95394.59;5020650;28;20445;-52
2023/05/01 08:53:32;;;;;;;;;;;18.00;59.70;;;12.46;100.00;95397.97;5047740;28;20405;-50
2023/05/01 08:56:00;;;;;;;;;;;18.10;59.60;;;12.52;100.00;95394.19;5032431;28;19908;-51
2023/05/01 08:58:29;;;;;;;;;;;18.20;59.60;;;12.55;100.00;95396.28;5036482;28;19920;-52
2023/05/01 09:00:57;;;;;;;;;;;18.20;59.50;;;12.57;100.00;95399.47;5034857;28;19923;-52
2023/05/01 09:03:23;;;;;;;;;;;18.20;59.50;;;12.65;100.00;95400.75;5043833;28;19908;-51
2023/05/01 09:05:51;;;;;;;;;;;18.20;59.50;;;12.62;100.00;95396.75;5052472;28;20386;-52
2023/05/01 09:08:16;;;;;;;;;;;18.20;59.50;;;12.59;100.00;95393.84;5030629;28;19943;-52
2023/05/01 09:10:48;;;;;;;;;;;18.10;59.50;;;12.53;100.00;95400.31;5032065;28;20414;-50
2023/05/01 09:13:13;;;;;;;;;;;18.10;59.50;;;12.52;100.00;95399.53;5038783;28;20294;-50
2023/05/01 09:15:39;;;;;;;;;;;18.10;59.40;;;12.59;100.00;95393.84;5031296;28;19908;-51
2023/05/01 09:18:08;;;;;;;;;;;18.30;59.40;;;12.58;100.00;95397.59;5052048;28;19909;-51
2023/05/01 09:20:36;;;;;;;;;;;18.30;59.20;;;12.57;100.00;95391.47;5027988;28;20366;-52
2023/05/01 09:23:03;;;;;;;;;;;18.40;59.00;;;12.48;99.03;95399.28;5021220;28;20020;-50
2023/05/01 09:25:30;;;;;;;;;;;18.50;58.90;;;12.56;99.31;95399.75;5052030;28;19915;-55
2023/05/01 09:27:56;;;;;;;;;;;18.60;58.80;;;12.68;99.46;95402.84;5040900;28;19913;-54
2023/05/01 09:30:37;;;;;;;;;;;18.60;58.70;;;12.83;99.92;95407.25;5051640;28;19916;-54
2023/05/01 09:33:08;;;;;;;;;;;18.70;58.60;;;12.88;99.70;95409.84;5050169;28;19908;-53
2023/05/01 09:35:55;;;;;;;;;;;18.80;58.60;;;12.89;97.42;95409.59;5051893;28;20689;-54
2023/05/01 09:38:27;;;;;;;;;;;18.80;58.50;;;12.98;98.88;95411.66;5042490;28;20012;-57
2023/05/01 09:41:02;;;;;;;;;;;18.80;58.50;;;12.96;96.93;95412.72;5029739;28;19919;-53
2023/05/01 09:43:29;;;;;;;;;;;18.90;59.20;;;13.05;99.36;95409.44;5051969;28;19924;-55
2023/05/01 09:46:08;;;;;;;;;;;18.80;58.50;;;12.86;94.18;95409.38;5030411;28;19916;-52
2023/05/01 09:48:36;;;;;;;;;;;18.80;58.60;;;13.03;98.83;95412.38;5030766;28;20579;-55
2023/05/01 09:51:21;;;;;;;;;;;18.70;58.60;;;13.01;98.36;95419.91;5041440;28;19909;-52
2023/05/01 09:53:48;;;;;;;;;;;18.70;58.60;;;13.03;96.79;95408.91;5014257;28;19919;-52
2023/05/01 09:56:13;;;;;;;;;;;18.70;58.70;;;12.92;96.02;95410.91;5030703;28;19958;-52
2023/05/01 09:58:39;;;;;;;;;;;18.70;58.60;;;12.97;96.72;95410.84;5031027;28;20328;-52
2023/05/01 10:01:05;;;;;;;;;;;18.70;58.60;;;12.95;96.54;95416.47;5031681;28;19909;-53
2023/05/01 10:03:33;;;;;;;;;;;18.80;58.50;;;13.12;96.48;95417.91;5038609;28;19913;-52
2023/05/01 10:06:01;;;;;;;;;;;18.90;58.30;;;13.13;96.89;95414.97;5051478;28;19915;-53
2023/05/01 10:08:45;;;;;;;;;;;19.00;58.30;;;13.25;95.42;95419.13;5040993;28;19924;-51
2023/05/01 10:11:11;;;;;;;;;;;19.20;58.20;;;13.42;96.85;95419.47;5045977;28;20003;-52
2023/05/01 10:13:37;;;;;;;;;;;19.40;58.10;;;13.71;97.62;95414.03;5051358;28;20049;-52
2023/05/01 10:16:06;;;;;;;;;;;19.70;58.00;;;13.98;96.63;95412.59;5048567;28;20260;-52
2023/05/01 10:18:35;;;;;;;;;;;20.00;57.90;;;14.17;96.30;95418.75;5051308;28;19912;-52
2023/05/01 10:21:04;;;;;;;;;;;20.30;57.60;;;14.38;92.11;95419.19;5049726;28;20003;-52
2023/05/01 10:23:30;;;;;;;;;;;20.60;57.50;;;14.49;93.50;95412.59;5039415;28;19917;-53
2023/05/01 10:25:57;;;;;;;;;;;20.80;57.20;;;14.57;87.35;95419.19;5016531;28;19908;-53
2023/05/01 10:28:24;;;;;;;;;;;20.90;57.10;;;14.23;87.30;95412.22;5028286;28;19927;-50
2023/05/01 10:30:51;;;;;;;;;;;20.90;56.60;;;14.16;85.92;95410.97;5041094;28;19908;-51
2023/05/01 10:33:18;;;;;;;;;;;20.80;56.40;;;14.38;89.89;95410.38;5031701;28;19912;-51
2023/05/01 10:35:54;;;;;;;;;;;20.70;56.30;;;14.56;90.15;95409.56;5049947;28;19908;-51
2023/05/01 10:38:34;;;;;;;;;;;20.70;56.50;;;14.63;89.05;95409.97;5028618;28;19908;-53
2023/05/01 10:41:00;;;;;;;;;;;20.80;56.60;;;14.77;89.81;95410.81;5014175;28;19913;-51
2023/05/01 10:43:31;;;;;;;;;;;20.80;56.60;;;14.82;85.67;95415.28;5032097;28;19909;-50
2023/05/01 10:46:14;;;;;;;;;;;20.80;56.80;;;14.87;85.66;95403.69;5044398;28;20750;-51
2023/05/01 10:48:41;;;;;;;;;;;20.70;56.70;;;14.85;84.97;95417.38;5039545;28;20301;-50
2023/05/01 10:51:10;;;;;;;;;;;20.70;56.60;;;14.84;83.39;95406.97;5045950;28;19951;-53
2023/05/01 10:53:38;;;;;;;;;;;20.70;56.60;;;14.74;82.74;95407.94;5037104;28;19959;-55
2023/05/01 10:56:25;;;;;;;;;;;20.90;56.50;;;14.90;82.53;95403.09;5042232;28;19913;-56
2023/05/01 10:59:03;;;;;;;;;;;21.00;56.20;;;15.03;81.70;95399.63;5029780;28;19920;-56
2023/05/01 11:01:38;;;;;;;;;;;21.30;56.00;;;15.06;80.62;95395.56;5023933;28;19908;-53
2023/05/01 11:04:26;;;;;;;;;;;21.40;55.70;;;15.16;78.05;95392.69;5033893;28;19908;-53
2023/05/01 11:07:04;;;;;;;;;;;21.60;55.40;;;15.19;76.27;95398.25;5029523;28;19912;-55
2023/05/01 11:09:49;;;;;;;;;;;21.70;55.20;;;15.18;78.65;95388.63;5036132;28;19916;-52
2023/05/01 11:12:47;;;;;;;;;;;21.70;55.00;;;15.44;79.71;95391.56;5041910;28;19912;-53
2023/05/01 11:15:29;;;;;;;;;;;21.90;54.90;;;15.57;77.86;95400.72;5046787;23;20804;-54
2023/05/01 11:17:56;;;;;;;;;;;22.00;54.80;;;15.72;76.46;95391.56;5041808;28;19947;-50
2023/05/01 11:20:25;;;;;;;;;;;22.20;54.70;;;15.62;73.05;95391.78;5015117;28;19912;-54
2023/05/01 11:22:57;;;;;;;;;;;22.40;54.40;;;15.74;79.83;95397.44;5050172;28;20259;-52